createdAt,value
2019-01-19T00:00:35.221Z,29.70
2019-01-19T00:03:27.945Z,29.43
2019-01-19T00:06:29.413Z,34.87
2019-01-19T00:09:28.357Z,27.87
2019-01-19T00:12:34.876Z,33.77
2019-01-19T00:15:13.046Z,28.10
2019-01-19T00:18:13.037Z,29.80
2019-01-19T00:20:57.173Z,33.10
2019-01-19T00:23:57.913Z,33.90
2019-01-19T00:26:41.845Z,34.80
2019-01-19T00:29:21.923Z,35.87
2019-01-19T00:32:25.712Z,33.20
2019-01-19T00:35:31.972Z,35.87
2019-01-19T00:38:17.549Z,31.73
2019-01-19T00:41:17.669Z,33.33
2019-01-19T00:44:13.617Z,27.77
2019-01-19T00:47:13.113Z,33.23
2019-01-19T00:49:48.806Z,30.53
2019-01-19T00:52:40.581Z,31.47
2019-01-19T00:55:38.500Z,36.77
2019-01-19T00:58:40.401Z,41.70
2019-01-19T01:01:43.782Z,37.03
2019-01-19T01:04:26.251Z,34.97
2019-01-19T01:07:29.201Z,33.67
2019-01-19T01:10:25.813Z,36.10
2019-01-19T01:13:33.932Z,37.17
2019-01-19T01:16:32.937Z,36.47
2019-01-19T01:19:25.571Z,39.77
2019-01-19T01:22:31.188Z,38.37
2019-01-19T01:25:36.069Z,36.97
2019-01-19T01:28:49.996Z,39.63
2019-01-19T01:31:54.319Z,36.63
2019-01-19T01:34:56.709Z,37.27
2019-01-19T01:37:54.261Z,32.43
2019-01-19T01:40:59.285Z,41.33
2019-01-19T01:43:41.005Z,34.87
2019-01-19T01:47:07.925Z,32.07
2019-01-19T01:49:51.993Z,31.00
2019-01-19T01:53:09.532Z,33.90
2019-01-19T01:55:45.282Z,31.70
2019-01-19T01:58:56.287Z,30.60
2019-01-19T02:01:32.581Z,31.50
2019-01-19T02:04:35.730Z,35.93
2019-01-19T02:07:36.260Z,33.83
2019-01-19T02:10:43.521Z,29.70
2019-01-19T02:13:24.889Z,28.33
2019-01-19T02:16:19.312Z,30.50
2019-01-19T02:19:25.378Z,28.90
2019-01-19T02:22:07.194Z,29.30
2019-01-19T02:25:04.326Z,25.50
2019-01-19T02:28:11.537Z,25.10
2019-01-19T02:31:30.517Z,28.30
2019-01-19T02:34:25.998Z,28.70
2019-01-19T02:37:03.361Z,27.47
2019-01-19T02:40:16.223Z,24.37
2019-01-19T02:43:13.817Z,22.87
2019-01-19T02:46:18.497Z,28.90
2019-01-19T02:49:25.469Z,28.70
2019-01-19T02:52:19.796Z,31.27
2019-01-19T02:55:16.317Z,30.70
2019-01-19T02:58:10.438Z,26.73
2019-01-19T03:01:03.086Z,29.40
2019-01-19T03:04:02.140Z,28.30
2019-01-19T03:07:02.078Z,29.70
2019-01-19T03:09:53.996Z,28.23
2019-01-19T03:13:01.216Z,33.40
2019-01-19T03:15:53.981Z,30.70
2019-01-19T03:19:21.321Z,34.13
2019-01-19T03:22:01.686Z,35.73
2019-01-19T03:25:09.279Z,32.30
2019-01-19T03:28:29.244Z,35.47
2019-01-19T03:31:28.470Z,28.93
2019-01-19T03:34:15.912Z,28.50
2019-01-19T03:37:12.615Z,29.47
2019-01-19T03:40:17.465Z,30.83
2019-01-19T03:43:13.573Z,24.80
2019-01-19T03:46:12.172Z,30.07
2019-01-19T03:49:15.546Z,29.67
2019-01-19T03:52:14.224Z,30.33
2019-01-19T03:55:22.821Z,31.87
2019-01-19T03:58:16.790Z,34.07
2019-01-19T04:01:01.425Z,32.00
2019-01-19T04:04:18.169Z,39.20
2019-01-19T04:07:03.628Z,34.33
2019-01-19T04:10:02.942Z,37.07
2019-01-19T04:12:56.725Z,37.77
2019-01-19T04:16:21.962Z,45.70
2019-01-19T04:19:17.011Z,36.73
2019-01-19T04:22:23.834Z,40.37
2019-01-19T04:25:04.708Z,40.73
2019-01-19T04:27:34.349Z,37.20
2019-01-19T04:30:04.518Z,38.07
2019-01-19T04:32:34.373Z,38.77
2019-01-19T04:35:04.711Z,36.20
2019-01-19T04:37:34.338Z,39.40
2019-01-19T04:40:05.137Z,35.67
2019-01-19T04:42:35.247Z,35.97
2019-01-19T04:45:05.282Z,40.50
2019-01-19T04:47:35.933Z,38.10
2019-01-19T04:50:06.205Z,40.57
2019-01-19T04:52:35.841Z,39.93
2019-01-19T04:55:06.014Z,39.57
2019-01-19T04:57:35.865Z,38.17
2019-01-19T05:00:08.629Z,39.17
2019-01-19T05:02:38.538Z,38.27
2019-01-19T05:05:08.225Z,38.20
2019-01-19T05:07:37.854Z,38.70
2019-01-19T05:10:07.798Z,34.97
2019-01-19T05:12:37.428Z,35.57
2019-01-19T05:15:10.481Z,34.03
2019-01-19T05:17:40.353Z,32.90
2019-01-19T05:20:10.724Z,32.67
2019-01-19T05:22:40.558Z,28.80
2019-01-19T05:25:10.376Z,30.13
2019-01-19T05:27:40.181Z,33.33
2019-01-19T05:30:13.177Z,30.07
2019-01-19T05:32:43.077Z,32.37
2019-01-19T05:35:13.297Z,30.63
2019-01-19T05:37:42.994Z,29.77
2019-01-19T05:40:13.318Z,27.90
2019-01-19T05:42:43.064Z,30.80
2019-01-19T05:45:14.434Z,32.03
2019-01-19T05:47:44.139Z,27.70
2019-01-19T05:50:23.446Z,31.07
2019-01-19T05:52:53.108Z,27.27
2019-01-19T05:55:23.021Z,29.63
2019-01-19T05:57:52.791Z,29.70
2019-01-19T06:00:30.033Z,32.00
2019-01-19T06:02:59.791Z,30.70
2019-01-19T06:05:29.557Z,29.43
2019-01-19T06:07:59.224Z,27.73
2019-01-19T06:10:29.119Z,27.03
2019-01-19T06:12:58.838Z,32.43
2019-01-19T06:15:28.462Z,28.23
2019-01-19T06:17:58.150Z,26.93
2019-01-19T06:20:28.019Z,28.27
2019-01-19T06:22:57.786Z,28.93
2019-01-19T06:25:27.413Z,26.63
2019-01-19T06:27:57.104Z,28.23
2019-01-19T06:30:26.818Z,27.37
2019-01-19T06:32:56.514Z,29.60
2019-01-19T06:35:26.467Z,31.03
2019-01-19T06:37:56.300Z,28.33
2019-01-19T06:40:26.979Z,27.57
2019-01-19T06:42:56.817Z,25.40
2019-01-19T06:45:26.714Z,29.20
2019-01-19T06:47:56.333Z,26.27
2019-01-19T06:50:25.973Z,26.10
2019-01-19T06:52:55.656Z,27.80
2019-01-19T06:55:35.686Z,28.13
2019-01-19T06:58:05.494Z,33.83
2019-01-19T07:00:35.224Z,31.13
2019-01-19T07:03:05.039Z,32.07
2019-01-19T07:05:34.662Z,32.13
2019-01-19T07:08:04.385Z,29.40
2019-01-19T07:10:34.092Z,29.40
2019-01-19T07:13:04.487Z,25.33
2019-01-19T07:15:34.740Z,25.80
2019-01-19T07:18:04.408Z,26.63
2019-01-19T07:20:34.045Z,29.57
2019-01-19T07:23:03.802Z,31.23
2019-01-19T07:25:33.617Z,32.17
2019-01-19T07:28:03.242Z,32.80
2019-01-19T07:30:32.876Z,29.63
2019-01-19T07:33:03.098Z,30.40
2019-01-19T07:35:32.717Z,28.80
2019-01-19T07:38:03.300Z,30.77
2019-01-19T07:40:32.931Z,29.87
2019-01-19T07:43:11.595Z,29.10
2019-01-19T07:45:41.517Z,33.70
2019-01-19T07:48:11.648Z,35.13
2019-01-19T07:50:42.014Z,36.07
2019-01-19T07:53:11.769Z,35.27
2019-01-19T07:55:41.782Z,33.63
2019-01-19T07:58:11.393Z,35.97
2019-01-19T08:00:41.021Z,33.73
2019-01-19T08:03:10.636Z,32.10
2019-01-19T08:05:40.338Z,31.13
2019-01-19T08:08:09.956Z,36.67
2019-01-19T08:10:39.585Z,37.30
2019-01-19T08:13:09.273Z,41.13
2019-01-19T08:15:39.214Z,35.30
2019-01-19T08:18:08.834Z,34.00
2019-01-19T08:20:39.067Z,35.33
2019-01-19T08:23:08.897Z,36.67
2019-01-19T08:25:38.922Z,34.97
2019-01-19T08:28:09.041Z,39.27
2019-01-19T08:30:38.721Z,38.13
2019-01-19T08:33:08.349Z,43.43
2019-01-19T08:35:38.369Z,40.07
2019-01-19T08:38:07.993Z,46.67
2019-01-19T08:40:38.069Z,43.23
2019-01-19T08:43:29.854Z,44.73
2019-01-19T08:45:59.653Z,43.50
2019-01-19T08:48:29.539Z,47.47
2019-01-19T08:50:59.474Z,53.40
2019-01-19T08:53:29.170Z,45.87
2019-01-19T08:55:59.070Z,50.77
2019-01-19T08:58:30.247Z,48.80
2019-01-19T09:00:59.894Z,49.87
2019-01-19T09:03:29.529Z,47.47
2019-01-19T09:05:59.224Z,52.47
2019-01-19T09:08:29.864Z,52.20
2019-01-19T09:10:59.486Z,43.10
2019-01-19T09:13:29.141Z,47.77
2019-01-19T09:16:09.922Z,51.40
2019-01-19T09:18:39.574Z,58.15
2019-01-19T09:21:09.258Z,47.90
2019-01-19T09:23:52.448Z,47.53
2019-01-19T09:26:22.048Z,44.97
2019-01-19T09:28:52.007Z,49.50
2019-01-19T09:31:21.629Z,50.67
2019-01-19T09:33:51.349Z,49.83
2019-01-19T09:36:21.310Z,56.63
2019-01-19T09:38:51.086Z,57.17
2019-01-19T09:41:20.790Z,54.57
2019-01-19T09:43:50.433Z,57.93
2019-01-19T09:46:20.290Z,59.93
2019-01-19T09:48:50.103Z,55.63
2019-01-19T09:51:19.793Z,63.47
2019-01-19T09:53:49.726Z,60.50
2019-01-19T09:56:20.449Z,62.30
2019-01-19T09:58:50.079Z,58.70
2019-01-19T10:01:19.997Z,59.80
2019-01-19T10:03:50.827Z,60.60
2019-01-19T10:06:20.751Z,64.83
2019-01-19T10:08:50.440Z,64.43
2019-01-19T10:11:20.289Z,69.17
2019-01-19T10:13:50.202Z,68.47
2019-01-19T10:16:20.533Z,65.67
2019-01-19T10:18:51.146Z,63.80
2019-01-19T10:21:21.041Z,65.40
2019-01-19T10:23:51.036Z,67.07
2019-01-19T10:26:21.949Z,57.53
2019-01-19T10:28:52.913Z,60.60
2019-01-19T10:31:22.609Z,59.77
2019-01-19T10:33:52.342Z,69.20
2019-01-19T10:36:21.956Z,71.07
2019-01-19T10:38:51.580Z,58.27
2019-01-19T10:41:21.192Z,57.93
2019-01-19T10:43:50.836Z,53.53
2019-01-19T10:46:20.449Z,57.50
2019-01-19T10:48:50.066Z,59.60
2019-01-19T10:51:20.041Z,54.17
2019-01-19T10:53:49.708Z,55.27
2019-01-19T10:56:20.401Z,57.10
2019-01-19T10:58:50.045Z,57.70
2019-01-19T11:01:19.665Z,56.63
2019-01-19T11:03:49.284Z,51.33
2019-01-19T11:06:18.888Z,52.67
2019-01-19T11:08:48.516Z,53.20
2019-01-19T11:11:18.538Z,72.33
2019-01-19T11:13:48.169Z,65.37
2019-01-19T11:16:18.078Z,80.00
2019-01-19T11:18:48.190Z,57.67
2019-01-19T11:21:17.801Z,50.33
2019-01-19T11:23:47.466Z,49.90
2019-01-19T11:26:17.327Z,52.40
2019-01-19T11:28:46.933Z,51.50
2019-01-19T11:31:16.856Z,50.57
2019-01-19T11:33:46.478Z,48.57
2019-01-19T11:36:16.105Z,47.80
2019-01-19T11:38:45.984Z,47.17
2019-01-19T11:41:15.609Z,52.63
2019-01-19T11:43:45.228Z,47.03
2019-01-19T11:46:14.840Z,44.83
2019-01-19T11:48:44.934Z,42.80
2019-01-19T11:51:14.873Z,44.53
2019-01-19T11:53:44.490Z,43.83
2019-01-19T11:56:14.191Z,43.30
2019-01-19T11:58:43.800Z,43.47
2019-01-19T12:01:13.576Z,40.97
2019-01-19T12:03:43.257Z,41.27
2019-01-19T12:06:12.892Z,41.93
2019-01-19T12:08:42.588Z,45.07
2019-01-19T12:11:12.315Z,38.30
2019-01-19T12:13:42.328Z,40.33
2019-01-19T12:16:11.957Z,44.70
2019-01-19T12:18:41.562Z,39.70
2019-01-19T12:21:11.185Z,39.70
2019-01-19T12:23:40.801Z,35.80
2019-01-19T12:26:10.441Z,37.40
2019-01-19T12:28:40.393Z,40.77
2019-01-19T12:31:10.173Z,39.43
2019-01-19T12:33:39.888Z,38.40
2019-01-19T12:36:09.504Z,39.60
2019-01-19T12:38:39.417Z,38.87
2019-01-19T12:41:09.092Z,36.17
2019-01-19T12:43:38.725Z,38.80
2019-01-19T12:46:10.630Z,41.83
2019-01-19T12:48:40.360Z,41.60
2019-01-19T12:51:12.193Z,38.23
2019-01-19T12:53:41.822Z,38.13
2019-01-19T12:56:11.437Z,38.67
2019-01-19T12:58:41.066Z,37.27
2019-01-19T13:01:11.077Z,38.77
2019-01-19T13:03:41.052Z,40.00
2019-01-19T13:06:30.972Z,41.10
2019-01-19T13:09:02.729Z,39.40
2019-01-19T13:11:51.594Z,40.90
2019-01-19T13:14:21.494Z,37.73
2019-01-19T13:17:37.440Z,37.83
2019-01-19T13:20:51.829Z,28.40
2019-01-19T13:23:53.736Z,31.13
2019-01-19T13:26:48.080Z,28.23
2019-01-19T13:30:03.485Z,28.73
2019-01-19T13:33:07.412Z,29.20
2019-01-19T13:36:13.620Z,27.77
2019-01-19T13:39:14.538Z,26.97
2019-01-19T13:42:28.380Z,25.90
2019-01-19T13:45:21.446Z,22.03
2019-01-19T13:48:17.759Z,20.57
2019-01-19T13:51:21.381Z,22.40
2019-01-19T13:54:28.914Z,23.00
2019-01-19T13:57:23.245Z,18.77
2019-01-19T14:00:01.333Z,20.97
2019-01-19T14:03:08.123Z,23.77
2019-01-19T14:06:21.901Z,27.77
2019-01-19T14:09:36.379Z,27.00
2019-01-19T14:12:35.755Z,27.23
2019-01-19T14:15:26.442Z,29.07
2019-01-19T14:18:20.389Z,28.07
2019-01-19T14:21:13.689Z,31.87
2019-01-19T14:23:57.125Z,42.17
2019-01-19T14:26:43.669Z,36.07
2019-01-19T14:30:22.354Z,38.83
2019-01-19T14:33:41.472Z,38.30
2019-01-19T14:37:00.612Z,37.87
2019-01-19T14:39:57.006Z,37.67
2019-01-19T14:43:14.055Z,32.13
2019-01-19T14:46:19.494Z,31.97
2019-01-19T14:49:28.350Z,30.97
2019-01-19T14:52:39.753Z,29.83
2019-01-19T14:55:20.339Z,25.77
2019-01-19T14:58:11.358Z,29.87
2019-01-19T15:01:05.305Z,26.40
2019-01-19T15:03:54.095Z,29.93
2019-01-19T15:06:55.338Z,25.27
2019-01-19T15:09:45.295Z,22.53
2019-01-19T15:12:47.890Z,23.07
2019-01-19T15:15:59.633Z,24.20
2019-01-19T15:19:10.385Z,25.20
2019-01-19T15:22:33.505Z,23.40
2019-01-19T15:25:53.655Z,22.00
2019-01-19T15:28:59.800Z,31.90
2019-01-19T15:32:13.434Z,32.47
2019-01-19T15:35:09.410Z,31.37
2019-01-19T15:37:59.641Z,33.53
2019-01-19T15:40:56.257Z,37.03
2019-01-19T15:44:01.582Z,36.47
2019-01-19T15:47:24.943Z,31.43
2019-01-19T15:50:30.200Z,41.50
2019-01-19T15:53:30.264Z,36.77
2019-01-19T15:56:39.982Z,38.70
2019-01-19T15:59:39.682Z,34.00
2019-01-19T16:02:39.315Z,34.00
2019-01-19T16:05:56.154Z,39.37
2019-01-19T16:09:18.241Z,35.43
2019-01-19T16:12:16.073Z,44.27
2019-01-19T16:15:13.152Z,40.93
2019-01-19T16:18:03.614Z,55.53
2019-01-19T16:20:51.382Z,100.80
2019-01-19T16:23:57.396Z,50.20
2019-01-19T16:27:16.519Z,37.50
2019-01-19T16:30:11.814Z,43.30
2019-01-19T16:33:23.041Z,42.73
2019-01-19T16:36:30.078Z,37.33
2019-01-19T16:39:28.046Z,43.37
2019-01-19T16:42:22.996Z,48.77
2019-01-19T16:45:30.577Z,55.40
2019-01-19T16:48:44.395Z,44.50
2019-01-19T16:52:01.442Z,42.60
2019-01-19T16:55:00.509Z,41.10
2019-01-19T16:57:43.526Z,40.73
2019-01-19T17:00:48.267Z,41.03
2019-01-19T17:03:38.428Z,39.63
2019-01-19T17:06:41.755Z,41.43
2019-01-19T17:09:24.586Z,41.43
2019-01-19T17:12:28.838Z,41.40
2019-01-19T17:15:36.066Z,46.20
2019-01-19T17:18:42.878Z,51.00
2019-01-19T17:21:52.539Z,43.50
2019-01-19T17:24:51.276Z,46.03
2019-01-19T17:28:08.045Z,45.17
2019-01-19T17:31:20.231Z,42.30
2019-01-19T17:34:29.288Z,48.43
2019-01-19T17:37:16.996Z,46.10
2019-01-19T17:40:37.453Z,45.13
2019-01-19T17:43:32.918Z,41.20
2019-01-19T17:46:32.002Z,43.07
2019-01-19T17:49:27.530Z,42.40
2019-01-19T17:52:14.278Z,48.83
2019-01-19T17:55:10.617Z,48.53
2019-01-19T17:58:02.222Z,46.20
2019-01-19T18:01:31.647Z,53.53
2019-01-19T18:04:28.809Z,52.17
2019-01-19T18:07:37.048Z,55.27
2019-01-19T18:10:27.396Z,57.33
2019-01-19T18:13:15.414Z,54.80
2019-01-19T18:16:29.432Z,57.03
2019-01-19T18:19:30.746Z,56.90
2019-01-19T18:22:51.245Z,53.03
2019-01-19T18:26:10.864Z,59.93
2019-01-19T18:29:21.230Z,55.13
2019-01-19T18:32:03.010Z,52.70
2019-01-19T18:34:48.590Z,56.07
2019-01-19T18:37:50.269Z,50.33
2019-01-19T18:40:43.092Z,52.70
2019-01-19T18:43:47.532Z,49.40
2019-01-19T18:46:51.995Z,47.70
2019-01-19T18:49:56.055Z,49.53
2019-01-19T18:52:54.790Z,51.30
2019-01-19T18:56:16.980Z,50.63
2019-01-19T18:59:04.109Z,51.10
2019-01-19T19:02:19.285Z,52.43
2019-01-19T19:05:25.811Z,47.30
2019-01-19T19:08:34.244Z,46.17
2019-01-19T19:11:29.093Z,55.90
2019-01-19T19:14:14.346Z,50.90
2019-01-19T19:17:23.701Z,47.40
2019-01-19T19:20:12.958Z,48.57
2019-01-19T19:23:04.890Z,50.47
2019-01-19T19:26:12.354Z,48.87
2019-01-19T19:29:19.368Z,47.90
2019-01-19T19:32:34.349Z,51.17
2019-01-19T19:35:40.188Z,48.07
2019-01-19T19:38:37.900Z,50.37
2019-01-19T19:41:54.452Z,47.17
2019-01-19T19:44:44.813Z,51.37
2019-01-19T19:47:32.729Z,49.93
2019-01-19T19:50:28.403Z,48.77
2019-01-19T19:52:58.180Z,47.70
2019-01-19T19:55:26.933Z,48.80
2019-01-19T19:57:56.956Z,47.10
2019-01-19T20:00:27.004Z,51.53
2019-01-19T20:02:56.961Z,55.50
2019-01-19T20:05:27.005Z,50.07
2019-01-19T20:07:57.121Z,55.50
2019-01-19T20:10:27.106Z,68.30
2019-01-19T20:12:57.100Z,54.37
2019-01-19T20:15:26.925Z,53.17
2019-01-19T20:17:56.901Z,56.17
2019-01-19T20:20:27.010Z,51.20
2019-01-19T20:22:56.869Z,52.53
2019-01-19T20:25:27.134Z,57.50
2019-01-19T20:27:57.344Z,53.23
2019-01-19T20:30:27.340Z,51.43
2019-01-19T20:32:57.020Z,56.27
2019-01-19T20:35:26.722Z,52.80
2019-01-19T20:37:56.345Z,52.73
2019-01-19T20:40:26.627Z,54.47
2019-01-19T20:42:56.548Z,54.93
2019-01-19T20:45:26.389Z,56.77
2019-01-19T20:47:57.266Z,53.73
2019-01-19T20:50:27.092Z,52.23
2019-01-19T20:52:56.809Z,54.93
2019-01-19T20:55:26.689Z,57.73
2019-01-19T20:57:56.453Z,52.77
2019-01-19T21:00:26.610Z,56.50
2019-01-19T21:02:56.393Z,56.53
2019-01-19T21:05:26.007Z,57.30
2019-01-19T21:07:55.821Z,56.40
2019-01-19T21:10:31.714Z,56.43
2019-01-19T21:12:57.863Z,58.17
2019-01-19T21:15:27.922Z,54.63
2019-01-19T21:17:57.618Z,64.97
2019-01-19T21:20:27.535Z,92.00
2019-01-19T21:22:57.319Z,60.30
2019-01-19T21:25:27.192Z,59.07
2019-01-19T21:27:56.800Z,54.23
2019-01-19T21:30:26.544Z,57.93
2019-01-19T21:32:56.288Z,52.53
2019-01-19T21:35:25.907Z,51.67
2019-01-19T21:37:55.528Z,53.73
2019-01-19T21:40:25.230Z,62.60
2019-01-19T21:42:54.867Z,55.90
2019-01-19T21:45:24.557Z,58.40
2019-01-19T21:47:54.179Z,58.20
2019-01-19T21:50:23.806Z,58.73
2019-01-19T21:52:53.424Z,58.90
2019-01-19T21:55:23.420Z,59.30
2019-01-19T21:57:53.110Z,60.90
2019-01-19T22:00:22.832Z,62.17
2019-01-19T22:02:52.571Z,65.43
2019-01-19T22:05:22.473Z,56.93
2019-01-19T22:07:53.157Z,59.80
2019-01-19T22:10:23.539Z,62.83
2019-01-19T22:12:53.445Z,56.17
2019-01-19T22:15:23.177Z,59.57
2019-01-19T22:17:53.066Z,66.53
2019-01-19T22:20:23.164Z,61.43
2019-01-19T22:22:53.208Z,56.60
2019-01-19T22:25:22.857Z,64.17
2019-01-19T22:27:52.904Z,57.67
2019-01-19T22:30:24.276Z,61.97
2019-01-19T22:32:55.510Z,57.10
2019-01-19T22:35:28.735Z,61.70
2019-01-19T22:37:59.136Z,60.30
2019-01-19T22:40:28.762Z,69.47
2019-01-19T22:43:01.038Z,68.03
2019-01-19T22:45:30.662Z,64.13
2019-01-19T22:48:00.295Z,67.63
2019-01-19T22:50:30.264Z,64.87
2019-01-19T22:52:59.893Z,64.93
2019-01-19T22:55:29.534Z,68.30
2019-01-19T22:57:59.164Z,62.90
2019-01-19T23:00:58.108Z,65.33
2019-01-19T23:03:30.338Z,64.77
2019-01-19T23:06:00.021Z,65.23
2019-01-19T23:08:29.640Z,66.33
2019-01-19T23:11:01.343Z,62.43
2019-01-19T23:13:30.662Z,67.00
2019-01-19T23:16:01.396Z,65.40
2019-01-19T23:18:31.048Z,62.50
2019-01-19T23:21:00.820Z,68.43
2019-01-19T23:23:30.610Z,74.27
2019-01-19T23:26:01.779Z,62.63
2019-01-19T23:28:31.726Z,73.87
2019-01-19T23:31:01.426Z,72.00
2019-01-19T23:33:31.112Z,71.27
2019-01-19T23:36:00.744Z,75.83
2019-01-19T23:38:30.820Z,75.30
2019-01-19T23:41:00.663Z,74.13
2019-01-19T23:43:30.292Z,71.80
2019-01-19T23:45:59.917Z,70.47
2019-01-19T23:48:29.593Z,68.93
2019-01-19T23:50:59.196Z,70.63
2019-01-19T23:53:28.833Z,79.23
2019-01-19T23:55:58.930Z,72.70
2019-01-19T23:58:28.560Z,72.70
